Flight Track Log - Related Links

Times and Time Zones

All times are in EDT time to prevent confusion due to time zone crossing. See the N789AM flight status page for this flight to view local times or setup timezone preferences in your user account.

Time Position Orientation Groundspeed Altitude Reporting Facility
EDT Latitude Longitude Course Direction KTS MPH feet Rate Location/Type
Thu 02:59:06 PM 42.8350 -81.8064 100° East 140 161 10,000  Level Cleveland Center
Thu 03:00:06 PM 42.8275 -81.7467 100° East 150 173 10,200 250 Climbing Cleveland Center
Thu 03:01:06 PM 42.8197 -81.6900 101° East 150 173 10,500 250 Climbing Cleveland Center
Thu 03:02:06 PM 42.8097 -81.6331 103° East 149 171 10,700 250 Climbing Cleveland Center
Thu 03:03:06 PM 42.8019 -81.5736 100° East 149 171 11,000 250 Climbing Cleveland Center
Thu 03:04:06 PM 42.7961 -81.5142 98° East 155 178 11,200 200 Climbing Cleveland Center
Thu 03:05:06 PM 42.7861 -81.4544 103° East 155 178 11,400 100 Climbing Cleveland Center
Thu 03:06:06 PM 42.7803 -81.3978 98° East 155 178 11,400  Level Cleveland Center
Thu 03:07:06 PM 42.7703 -81.3356 102° East 165 190 11,400 50 Level Cleveland Center
Thu 03:08:06 PM 42.7603 -81.2731 102° East 159 183 11,500 50 Climbing Cleveland Center
Thu 03:09:06 PM 42.7544 -81.2222 99° East 159 183 11,500  Level Cleveland Center
Thu 03:10:06 PM 42.7464 -81.1656 101° East 168 193 11,500 -50 Level Cleveland Center
Thu 03:11:06 PM 42.7361 -81.0975 102° East 167 192 11,400  Descending Cleveland Center
Thu 03:12:06 PM 42.7281 -81.0383 100° East 157 181 11,500 50 Climbing Cleveland Center
Thu 03:13:06 PM 42.7200 -80.9761 100° East 162 186 11,500 -50 Level Cleveland Center
Thu 03:14:06 PM 42.7119 -80.9167 100° East 162 186 11,400  Descending Cleveland Center
Thu 03:15:06 PM 42.6994 -80.8486 104° East 162 186 11,500 50 Climbing Cleveland Center
Thu 03:16:06 PM 42.6933 -80.7894 98° East 162 186 11,500  Level Cleveland Center
Thu 03:17:06 PM 42.6831 -80.7272 103° East 162 186 11,500  Level Cleveland Center
Thu 03:18:07 PM 42.6747 -80.6681 101° East 162 186 11,500  Level Cleveland Center
Thu 03:19:06 PM 42.6667 -80.6058 100° East 162 186 11,500  Level Cleveland Center
Thu 03:20:06 PM 42.6561 -80.5408 102° East 162 186 11,500  Level Cleveland Center
Thu 03:21:06 PM 42.6478 -80.4844 101° East 162 186 11,500  Level Cleveland Center
Thu 03:22:06 PM 42.6394 -80.4222 100° East 155 178 11,500  Level Cleveland Center
Thu 03:23:06 PM 42.6331 -80.3603 98° East 160 184 11,500  Level Cleveland Center
Thu 03:24:06 PM 42.6203 -80.3039 107° East 168 193 11,500  Level Cleveland Center
Thu 03:25:06 PM 42.6139 -80.2447 98° East 163 188 11,500  Level Cleveland Center
Thu 03:26:06 PM 42.6033 -80.1769 102° East 163 188 11,500  Level Cleveland Center
Thu 03:27:06 PM 42.5928 -80.1206 104° East 162 186 11,500  Level Cleveland Center
Thu 03:28:06 PM 42.5842 -80.0614 101° East 162 186 11,500  Level Cleveland Center
Thu 03:29:06 PM 42.5756 -79.9994 101° East 162 186 11,500  Level Cleveland Center
Thu 03:30:06 PM 42.5647 -79.9319 102° East 167 192 11,500  Level Cleveland Center
Thu 03:31:06 PM 42.5561 -79.8728 101° East 167 192 11,500  Level Cleveland Center
Thu 03:32:06 PM 42.5453 -79.8139 104° East 161 185 11,500  Level Cleveland Center
Thu 03:33:06 PM 42.5364 -79.7519 101° East 161 185 11,500  Level Cleveland Center
Thu 03:34:06 PM 42.5278 -79.6958 102° East 161 185 11,500  Level Cleveland Center
Thu 03:35:06 PM 42.5208 -79.6339 99° East 161 185 11,500  Level Cleveland Center
Thu 03:36:06 PM 42.5122 -79.5747 101° East 161 185 11,500  Level Cleveland Center
Thu 03:37:06 PM 42.5033 -79.5158 102° East 161 185 11,500  Level Cleveland Center
Thu 03:38:06 PM 42.4964 -79.4567 99° East 161 185 11,500  Level Cleveland Center
Thu 03:39:06 PM 42.4875 -79.3978 102° East 161 185 11,500  Level Cleveland Center
Thu 03:40:06 PM 42.4744 -79.3389 107° East 161 185 11,500  Level Cleveland Center
Thu 03:41:06 PM 42.4653 -79.2800 102° East 161 185 11,500  Level Cleveland Center
Thu 03:42:06 PM 42.4542 -79.2239 105° East 161 185 11,500  Level Cleveland Center
Thu 03:43:06 PM 42.4431 -79.1622 104° East 161 185 11,500  Level Cleveland Center
Thu 03:44:06 PM 42.4319 -79.1064 105° East 161 185 11,500  Level Cleveland Center
Thu 03:45:06 PM 42.4250 -79.0444 99° East 161 185 11,500  Level Cleveland Center
Thu 03:46:06 PM 42.4136 -78.9831 104° East 161 185 11,500  Level Cleveland Center
Thu 03:47:06 PM 42.4044 -78.9242 102° East 161 185 11,500  Level Cleveland Center
Thu 03:48:06 PM 42.3975 -78.8625 99° East 161 185 11,500  Level Cleveland Center
Thu 03:49:06 PM 42.3881 -78.8036 102° East 161 185 11,500  Level Cleveland Center
Thu 03:50:06 PM 42.3767 -78.7422 104° East 161 185 11,500  Level Cleveland Center
Thu 03:51:06 PM 42.3675 -78.6833 102° East 161 185 11,500  Level Cleveland Center
Thu 03:52:06 PM 42.3581 -78.6247 102° East 161 185 11,500  Level Cleveland Center
Thu 03:53:06 PM 42.3489 -78.5661 102° East 161 185 11,500  Level Cleveland Center
Thu 03:54:06 PM 42.3394 -78.5044 102° East 161 185 11,500  Level Cleveland Center
Thu 03:55:06 PM 42.3278 -78.4431 104° East 161 185 11,500  Level Cleveland Center
Thu 03:56:06 PM 42.3183 -78.3817 102° East 161 185 11,500  Level Cleveland Center
Thu 03:57:06 PM 42.3067 -78.3231 105° East 161 185 11,500  Level Cleveland Center
Thu 03:58:06 PM 42.2972 -78.2617 102° East 161 185 11,500  Level Cleveland Center
Thu 03:59:06 PM 42.2856 -78.2003 104° East 161 185 11,500  Level Cleveland Center
Thu 04:00:06 PM 42.2758 -78.1417 103° East 161 185 11,500  Level Cleveland Center
Thu 04:01:06 PM 42.2642 -78.0806 104° East 161 185 11,500  Level Cleveland Center
Thu 04:02:06 PM 42.2567 -78.0189 99° East 161 185 11,500  Level Cleveland Center
Thu 04:03:06 PM 42.2447 -77.9578 105° East 161 185 11,500  Level Cleveland Center
Thu 04:04:06 PM 42.2328 -77.8881 103° East 161 185 11,500  Level Cleveland Center
Thu 04:05:06 PM 42.2231 -77.8297 103° East 161 185 11,500  Level Cleveland Center
Thu 04:06:06 PM 42.2111 -77.7686 105° East 161 185 11,500  Level Cleveland Center
Thu 04:07:06 PM 42.2014 -77.7072 102° East 161 185 11,500  Level Cleveland Center
Thu 04:09:21 PM 42.1767 -77.5681 103° East 161 185 11,500  Level New York Center
Thu 04:10:16 PM 42.1667 -77.4833 99° East 160 184 11,500  Level Toronto Center
Thu 04:11:16 PM 42.1500 -77.4333 114° Southeast 170 196 11,500  Level Toronto Center
Thu 04:12:17 PM 42.1333 -77.3667 109° East 170 196 11,500  Level Toronto Center
Thu 04:14:21 PM 42.1228 -77.2631 98° East 169 194 11,500  Level New York Center
Thu 04:15:21 PM 42.1097 -77.2003 106° East 169 194 11,500  Level New York Center
Thu 04:16:21 PM 42.0983 -77.1406 104° East 169 194 11,500  Level New York Center
Thu 04:17:21 PM 42.0869 -77.0781 104° East 169 194 11,500  Level New York Center
Thu 04:18:21 PM 42.0758 -77.0153 103° East 169 194 11,500  Level New York Center
Thu 04:19:21 PM 42.0644 -76.9528 104° East 169 194 11,500  Level New York Center
Thu 04:20:21 PM 42.0550 -76.8961 103° East 169 194 11,500  Level New York Center
Thu 04:21:21 PM 42.0436 -76.8336 104° East 169 194 11,500  Level New York Center
Thu 04:22:21 PM 42.0322 -76.7711 104° East 164 189 11,500  Level New York Center
Thu 04:23:21 PM 42.0206 -76.7086 104° East 164 189 11,500  Level New York Center
Thu 04:24:21 PM 42.0092 -76.6492 104° East 164 189 11,500  Level New York Center
Thu 04:25:21 PM 41.9975 -76.5867 104° East 164 189 11,500  Level New York Center
Thu 04:26:21 PM 41.9858 -76.5269 105° East 164 189 11,500  Level New York Center
Thu 04:27:21 PM 41.9761 -76.4675 102° East 164 189 11,500  Level New York Center
Thu 04:28:21 PM 41.9647 -76.4053 104° East 164 189 11,500  Level New York Center
Thu 04:29:21 PM 41.9489 -76.3425 109° East 170 196 11,500  Level New York Center
Thu 04:30:21 PM 41.9369 -76.2831 105° East 170 196 11,500  Level New York Center
Thu 04:31:20 PM 41.9292 -76.2294 101° East 165 190 11,500  Level New York Center
Thu 04:32:21 PM 41.9153 -76.1669 107° East 165 190 11,500  Level New York Center
Thu 04:33:21 PM 41.8972 -76.1069 112° Southeast 165 190 11,500  Level New York Center
Thu 04:34:20 PM 41.8789 -76.0497 113° Southeast 165 190 11,500  Level New York Center
Thu 04:35:21 PM 41.8583 -75.9953 117° Southeast 165 190 11,500  Level New York Center
Thu 04:36:21 PM 41.8397 -75.9436 116° Southeast 165 190 11,500  Level New York Center
Thu 04:37:21 PM 41.8194 -75.8836 114° Southeast 165 190 11,500  Level New York Center
Thu 04:38:21 PM 41.7953 -75.8178 116° Southeast 165 190 11,500  Level New York Center
Thu 04:39:21 PM 41.7728 -75.7603 118° Southeast 165 190 11,500  Level New York Center
Thu 04:40:21 PM 41.7542 -75.7033 114° Southeast 165 190 11,500  Level New York Center
Thu 04:41:20 PM 41.7336 -75.6464 116° Southeast 165 190 11,500  Level New York Center
Thu 04:42:21 PM 41.7131 -75.5892 116° Southeast 165 190 11,500  Level New York Center
Thu 04:43:21 PM 41.6944 -75.5378 116° Southeast 165 190 11,500  Level New York Center
Thu 04:44:21 PM 41.6672 -75.4858 125° Southeast 165 190 11,500  Level New York Center
Thu 04:46:21 PM 41.6092 -75.3764 125° Southeast 178 205 11,500  Level New York Center
Thu 04:47:21 PM 41.6053 -75.3122 95° East 171 197 11,500  Level New York Center
Thu 04:48:21 PM 41.6011 -75.2622 96° East 163 188 11,500  Level New York Center
Thu 04:49:21 PM 41.5931 -75.2006 100° East 163 188 11,500 -150 Level New York Center
Thu 04:50:21 PM 41.5850 -75.1336 99° East 163 188 11,200 -316 Descending New York Center
Thu 04:51:53 PM 41.5725 -75.0319 99° East 174 200 10,700 -392 Descending Boston Center
Thu 04:52:54 PM 41.5636 -74.9622 100° East 185 213 10,200 -454 Descending Boston Center
Thu 04:53:52 PM 41.5567 -74.8953 98° East 185 213 9,800 -450 Descending Boston Center
Thu 04:54:54 PM 41.5478 -74.8256 100° East 180 207 9,300 -443 Descending Boston Center
Thu 04:55:54 PM 41.5389 -74.7586 100° East 180 207 8,900 -403 Descending Boston Center
Thu 04:56:53 PM 41.5297 -74.6892 100° East 180 207 8,500 -403 Descending Boston Center
Thu 04:57:53 PM 41.5228 -74.6222 98° East 180 207 8,100 -450 Descending Boston Center
Thu 04:58:53 PM 41.5136 -74.5497 100° East 180 207 7,600 -446 Descending Boston Center
Thu 04:59:54 PM 41.5044 -74.4914 102° East 180 207 7,200 -303 Descending Boston Center
Thu 05:00:52 PM 41.4953 -74.4161 99° East 180 207 7,000 -153 Descending Boston Center
Thu 05:01:52 PM 41.4881 -74.3578 99° East 180 207 6,900 -298 Descending Boston Center
Thu 05:02:53 PM 41.4786 -74.2883 100° East 180 207 6,400 -448 Descending Boston Center
Thu 05:04:46 PM 41.4500 -74.1667 107° East 184 212 5,600 -467 Descending New York TRACON
Thu 05:05:40 PM 41.4333 -74.1000 108° East 181 208 5,100 -526 Descending New York TRACON
Thu 05:06:40 PM 41.4167 -74.0500 114° Southeast 175 201 4,600 -500 Descending New York TRACON
Thu 05:07:40 PM 41.4000 -73.9833 108° East 173 199 4,100 -450 Descending New York TRACON
Thu 05:08:40 PM 41.3833 -73.9333 114° Southeast 175 201 3,700 -450 Descending New York TRACON
Thu 05:09:40 PM 41.3667 -73.8667 108° East 183 211 3,200 -500 Descending New York TRACON
Thu 05:10:40 PM 41.3500 -73.8000 108° East 185 213 2,700 -400 Descending New York TRACON
Thu 05:11:40 PM 41.3167 -73.7333 124° Southeast 180 207 2,400 -100 Descending New York TRACON
Thu 05:12:40 PM 41.3167 -73.6833 90° East 178 205 2,500  Climbing New York TRACON
Thu 05:13:40 PM 41.3167 -73.6167 90° East 175 201 2,400 50 Descending New York TRACON
Thu 05:14:40 PM 41.3333 -73.5833 56° Northeast 130 150 2,600 -350 Climbing New York TRACON
Thu 05:15:40 PM 41.3500 -73.5500 56° Northeast 92 106 1,700 -632 Descending New York TRACON
Thu 05:16:34 PM 41.3500 -73.5167 90° East 96 110 1,400 -333 Descending New York TRACON

Login

Don't have an account? Register now (free) for customized features, flight alerts, and more!